createdAt,value
2022-07-29T00:02:02.778Z,100.00
2022-07-29T00:04:31.620Z,100.00
2022-07-29T00:07:00.348Z,100.00
2022-07-29T00:09:29.054Z,100.00
2022-07-29T00:12:00.470Z,100.00
2022-07-29T00:14:30.175Z,100.00
2022-07-29T00:16:59.065Z,100.00
2022-07-29T00:19:30.237Z,100.00
2022-07-29T00:22:02.288Z,100.00
2022-07-29T00:24:30.937Z,100.00
2022-07-29T00:26:59.660Z,100.00
2022-07-29T00:29:34.161Z,100.00
2022-07-29T00:32:04.435Z,100.00
2022-07-29T00:34:51.839Z,100.00
2022-07-29T00:37:20.485Z,100.00
2022-07-29T00:39:49.428Z,100.00
2022-07-29T00:42:19.998Z,100.00
2022-07-29T00:44:49.112Z,100.00
2022-07-29T00:47:17.821Z,100.00
2022-07-29T00:49:47.122Z,100.00
2022-07-29T00:52:17.141Z,100.00
2022-07-29T00:54:46.321Z,100.00
2022-07-29T00:57:15.013Z,100.00
2022-07-29T00:59:43.621Z,100.00
2022-07-29T01:02:12.471Z,100.00
2022-07-29T01:04:42.135Z,100.00
2022-07-29T01:07:12.029Z,100.00
2022-07-29T01:09:45.449Z,100.00
2022-07-29T01:12:26.462Z,100.00
2022-07-29T01:14:57.604Z,100.00
2022-07-29T01:17:53.653Z,100.00
2022-07-29T01:21:03.156Z,100.00
2022-07-29T01:23:46.002Z,100.00
2022-07-29T01:26:35.816Z,100.00
2022-07-29T01:29:11.035Z,100.00
2022-07-29T01:31:59.444Z,100.00
2022-07-29T01:34:47.172Z,100.00
2022-07-29T01:37:22.087Z,100.00
2022-07-29T01:39:54.309Z,100.00
2022-07-29T01:42:36.212Z,100.00
2022-07-29T01:45:21.995Z,100.00
2022-07-29T01:48:04.518Z,100.00
2022-07-29T01:50:40.186Z,100.00
2022-07-29T01:53:12.508Z,100.00
2022-07-29T01:55:45.494Z,100.00
2022-07-29T01:58:16.195Z,100.00
2022-07-29T02:00:50.994Z,100.00
2022-07-29T02:03:21.101Z,100.00
2022-07-29T02:05:52.272Z,100.00
2022-07-29T02:08:21.683Z,100.00
2022-07-29T02:10:51.589Z,100.00
2022-07-29T02:13:22.783Z,100.00
2022-07-29T02:15:53.025Z,100.00
2022-07-29T02:18:24.524Z,100.00
2022-07-29T02:20:58.039Z,100.00
2022-07-29T02:23:28.078Z,100.00
2022-07-29T02:25:58.723Z,100.00
2022-07-29T02:28:30.415Z,100.00
2022-07-29T02:31:03.352Z,100.00
2022-07-29T02:33:33.183Z,100.00
2022-07-29T02:36:03.300Z,100.00
2022-07-29T02:38:52.015Z,100.00
2022-07-29T02:41:31.126Z,100.00
2022-07-29T02:44:07.046Z,100.00
2022-07-29T02:46:38.678Z,100.00
2022-07-29T02:49:45.480Z,100.00
2022-07-29T02:52:43.630Z,100.00
2022-07-29T02:55:36.762Z,100.00
2022-07-29T02:58:12.824Z,100.00
2022-07-29T03:00:42.831Z,100.00
2022-07-29T03:03:16.879Z,100.00
2022-07-29T03:05:45.633Z,100.00
2022-07-29T03:08:16.836Z,100.00
2022-07-29T03:10:47.535Z,100.00
2022-07-29T03:13:17.534Z,100.00
2022-07-29T03:15:47.924Z,100.00
2022-07-29T03:18:17.244Z,100.00
2022-07-29T03:20:46.013Z,100.00
2022-07-29T03:23:21.605Z,100.00
2022-07-29T03:25:51.545Z,100.00
2022-07-29T03:28:21.366Z,100.00
2022-07-29T03:30:51.920Z,100.00
2022-07-29T03:33:23.479Z,100.00
2022-07-29T03:35:52.013Z,100.00
2022-07-29T03:38:21.388Z,100.00
2022-07-29T03:41:03.209Z,100.00
2022-07-29T03:43:38.612Z,100.00
2022-07-29T03:46:20.067Z,100.00
2022-07-29T03:48:52.500Z,100.00
2022-07-29T03:51:33.214Z,100.00
2022-07-29T03:54:10.104Z,100.00
2022-07-29T03:56:49.928Z,100.00
2022-07-29T03:59:21.417Z,100.00
2022-07-29T04:01:50.919Z,100.00
2022-07-29T04:04:20.000Z,100.00
2022-07-29T04:06:49.243Z,100.00
2022-07-29T04:09:17.875Z,100.00
2022-07-29T04:12:02.306Z,100.00
2022-07-29T04:14:36.585Z,100.00
2022-07-29T04:17:06.261Z,100.00
2022-07-29T04:19:35.057Z,100.00
2022-07-29T04:22:03.582Z,100.00
2022-07-29T04:24:32.360Z,100.00
2022-07-29T04:27:01.119Z,100.00
2022-07-29T04:29:29.823Z,100.00
2022-07-29T04:31:58.681Z,100.00
2022-07-29T04:34:28.278Z,99.76
2022-07-29T04:36:57.784Z,99.47
2022-07-29T04:39:29.679Z,99.24
2022-07-29T04:41:59.377Z,98.96
2022-07-29T04:44:29.182Z,98.79
2022-07-29T04:46:58.722Z,98.91
2022-07-29T04:49:27.740Z,98.75
2022-07-29T04:51:56.401Z,99.06
2022-07-29T04:54:25.652Z,98.87
2022-07-29T04:56:54.942Z,98.22
2022-07-29T04:59:23.709Z,98.63
2022-07-29T05:01:52.431Z,98.32
2022-07-29T05:04:21.111Z,97.82
2022-07-29T05:06:50.370Z,97.64
2022-07-29T05:09:19.176Z,97.09
2022-07-29T05:11:48.133Z,97.03
2022-07-29T05:14:16.970Z,96.68
2022-07-29T05:16:48.833Z,95.58
2022-07-29T05:19:17.520Z,95.00
2022-07-29T05:21:46.981Z,94.57
2022-07-29T05:24:16.098Z,93.96
2022-07-29T05:26:45.323Z,93.12
2022-07-29T05:29:44.943Z,92.72
2022-07-29T05:32:02.917Z,91.90
2022-07-29T05:34:31.338Z,90.58
2022-07-29T05:37:00.399Z,90.82
2022-07-29T05:39:47.408Z,90.06
2022-07-29T05:42:17.641Z,89.57
2022-07-29T05:44:46.416Z,90.32
2022-07-29T05:47:15.524Z,89.88
2022-07-29T05:49:47.753Z,89.18
2022-07-29T05:52:16.926Z,89.02
2022-07-29T05:54:46.041Z,88.48
2022-07-29T05:57:19.547Z,87.73
2022-07-29T05:59:49.000Z,87.22
2022-07-29T06:02:18.039Z,86.99
2022-07-29T06:04:46.950Z,85.88
2022-07-29T06:07:15.658Z,86.01
2022-07-29T06:09:44.493Z,85.96
2022-07-29T06:12:13.183Z,86.03
2022-07-29T06:14:41.929Z,86.52
2022-07-29T06:17:10.474Z,86.70
2022-07-29T06:19:39.640Z,86.87
2022-07-29T06:22:08.414Z,86.85
2022-07-29T06:24:39.509Z,87.21
2022-07-29T06:27:08.190Z,87.01
2022-07-29T06:29:36.809Z,87.52
2022-07-29T06:32:06.234Z,87.66
2022-07-29T06:34:34.834Z,87.79
2022-07-29T06:37:08.848Z,86.44
2022-07-29T06:39:44.409Z,87.51
2022-07-29T06:42:13.134Z,86.65
2022-07-29T06:44:43.643Z,86.22
2022-07-29T06:47:12.125Z,86.58
2022-07-29T06:49:40.780Z,84.33
2022-07-29T06:52:09.755Z,82.76
2022-07-29T06:54:38.566Z,81.69
2022-07-29T06:57:07.366Z,81.65
2022-07-29T06:59:36.201Z,81.94
2022-07-29T07:02:05.357Z,80.83
2022-07-29T07:04:34.003Z,79.84
2022-07-29T07:07:02.761Z,80.70
2022-07-29T07:09:40.582Z,81.24
2022-07-29T07:12:10.634Z,77.92
2022-07-29T07:14:39.578Z,77.86
2022-07-29T07:17:08.862Z,77.16
2022-07-29T07:19:37.533Z,76.97
2022-07-29T07:22:06.315Z,75.07
2022-07-29T07:24:35.052Z,74.19
2022-07-29T07:27:03.750Z,74.53
2022-07-29T07:29:32.353Z,73.59
2022-07-29T07:32:01.505Z,71.82
2022-07-29T07:34:31.638Z,72.04
2022-07-29T07:37:00.784Z,72.00
2022-07-29T07:39:29.372Z,72.01
2022-07-29T07:41:58.083Z,70.94
2022-07-29T07:44:26.762Z,69.27
2022-07-29T07:46:55.422Z,70.91
2022-07-29T07:49:24.170Z,71.92
2022-07-29T07:51:54.310Z,68.96
2022-07-29T07:54:22.954Z,69.19
2022-07-29T07:56:52.996Z,69.79
2022-07-29T07:59:22.341Z,71.01
2022-07-29T08:01:55.381Z,71.91
2022-07-29T08:04:28.615Z,69.57
2022-07-29T08:06:59.518Z,70.42
2022-07-29T08:09:30.556Z,69.54
2022-07-29T08:12:01.464Z,71.10
2022-07-29T08:14:30.346Z,70.85
2022-07-29T08:16:59.344Z,70.54
2022-07-29T08:19:28.087Z,70.26
2022-07-29T08:21:56.666Z,70.91
2022-07-29T08:24:44.398Z,71.80
2022-07-29T08:27:40.666Z,73.23
2022-07-29T08:30:01.678Z,72.27
2022-07-29T08:32:52.543Z,71.25
2022-07-29T08:35:19.389Z,70.07
2022-07-29T08:37:48.390Z,69.05
2022-07-29T08:40:17.114Z,67.55
2022-07-29T08:42:46.195Z,67.72
2022-07-29T08:45:15.175Z,66.61
2022-07-29T08:47:47.014Z,67.39
2022-07-29T08:50:15.494Z,66.26
2022-07-29T08:52:46.003Z,66.17
2022-07-29T08:55:21.421Z,64.76
2022-07-29T08:57:54.310Z,64.43
2022-07-29T09:00:27.831Z,64.27
2022-07-29T09:03:00.554Z,66.33
2022-07-29T09:05:30.166Z,63.94
2022-07-29T09:07:59.310Z,63.88
2022-07-29T09:10:28.326Z,63.32
2022-07-29T09:12:57.272Z,64.50
2022-07-29T09:15:26.606Z,64.34
2022-07-29T09:17:56.899Z,64.21
2022-07-29T09:20:26.405Z,63.55
2022-07-29T09:22:55.576Z,64.22
2022-07-29T09:25:42.545Z,64.08
2022-07-29T09:28:16.665Z,65.08
2022-07-29T09:30:55.595Z,64.49
2022-07-29T09:33:26.107Z,65.17
2022-07-29T09:36:02.354Z,64.32
2022-07-29T09:38:33.799Z,65.09
2022-07-29T09:41:05.594Z,65.40
2022-07-29T09:43:36.129Z,66.21
2022-07-29T09:46:17.066Z,66.14
2022-07-29T09:48:46.043Z,67.55
2022-07-29T09:51:26.721Z,65.87
2022-07-29T09:54:02.154Z,65.03
2022-07-29T09:56:44.464Z,64.39
2022-07-29T09:59:13.934Z,65.04
2022-07-29T10:01:43.786Z,66.79
2022-07-29T10:04:12.595Z,67.91
2022-07-29T10:07:04.704Z,69.49
2022-07-29T10:09:35.150Z,70.02
2022-07-29T10:12:10.657Z,71.27
2022-07-29T10:14:40.406Z,71.71
2022-07-29T10:17:11.055Z,72.09
2022-07-29T10:19:40.694Z,71.99
2022-07-29T10:22:13.028Z,71.57
2022-07-29T10:24:41.845Z,72.06
2022-07-29T10:27:11.103Z,72.39
2022-07-29T10:29:39.917Z,72.65
2022-07-29T10:32:08.696Z,73.21
2022-07-29T10:35:12.627Z,74.54
2022-07-29T10:38:17.706Z,73.39
2022-07-29T10:41:23.222Z,73.12
2022-07-29T10:43:52.285Z,73.87
2022-07-29T10:46:21.354Z,73.85
2022-07-29T10:49:25.067Z,74.33
2022-07-29T10:52:06.456Z,74.68
2022-07-29T10:54:43.873Z,74.51
2022-07-29T10:57:53.948Z,74.19
2022-07-29T11:00:20.318Z,74.35
2022-07-29T11:02:53.546Z,73.64
2022-07-29T11:05:23.139Z,73.44
2022-07-29T11:08:21.043Z,72.35
2022-07-29T11:11:17.480Z,69.75
2022-07-29T11:13:49.394Z,69.35
2022-07-29T11:16:21.294Z,69.59
2022-07-29T11:19:14.837Z,71.00
2022-07-29T11:21:55.390Z,69.68
2022-07-29T11:24:32.670Z,69.64
2022-07-29T11:27:19.767Z,70.25
2022-07-29T11:29:56.855Z,69.18
2022-07-29T11:32:37.154Z,69.64
2022-07-29T11:35:37.383Z,70.30
2022-07-29T11:38:31.817Z,69.02
2022-07-29T11:41:20.864Z,69.73
2022-07-29T11:43:54.915Z,68.64
2022-07-29T11:46:49.484Z,68.14
2022-07-29T11:49:32.340Z,68.34
2022-07-29T11:52:05.584Z,67.91
2022-07-29T11:54:38.681Z,68.69
2022-07-29T12:00:24.072Z,67.94
2022-07-29T12:02:53.365Z,67.72
2022-07-29T12:05:36.339Z,67.16
2022-07-29T12:07:03.447Z,68.08
2022-07-29T12:08:14.543Z,66.72
2022-07-29T12:10:45.127Z,65.93
2022-07-29T12:13:15.071Z,65.39
2022-07-29T12:15:47.362Z,65.25
2022-07-29T12:18:19.422Z,66.39
2022-07-29T12:21:03.667Z,66.92
2022-07-29T12:23:34.705Z,66.07
2022-07-29T12:26:10.926Z,65.41
2022-07-29T12:28:50.888Z,64.88
2022-07-29T12:31:42.302Z,65.09
2022-07-29T12:34:08.635Z,65.02
2022-07-29T12:36:39.364Z,64.95
2022-07-29T12:39:08.385Z,65.69
2022-07-29T12:41:37.263Z,65.87
2022-07-29T12:44:06.211Z,65.81
2022-07-29T12:46:34.765Z,65.33
2022-07-29T12:49:04.082Z,64.98
2022-07-29T12:51:33.983Z,65.08
2022-07-29T12:54:17.256Z,65.34
2022-07-29T12:56:46.915Z,65.20
2022-07-29T12:59:19.608Z,65.93
2022-07-29T13:01:50.985Z,65.92
2022-07-29T13:04:34.978Z,65.42
2022-07-29T13:07:10.535Z,65.33
2022-07-29T13:09:48.482Z,65.25
2022-07-29T13:12:17.203Z,64.49
2022-07-29T13:14:48.151Z,64.43
2022-07-29T13:17:22.523Z,64.72
2022-07-29T13:19:51.638Z,65.68
2022-07-29T13:22:26.284Z,65.64
2022-07-29T13:24:56.882Z,65.39
2022-07-29T13:27:28.616Z,65.79
2022-07-29T13:29:59.593Z,65.83
2022-07-29T13:32:29.954Z,65.67
2022-07-29T13:35:00.569Z,65.87
2022-07-29T13:37:31.435Z,64.97
2022-07-29T13:40:01.010Z,64.33
2022-07-29T13:42:29.890Z,64.16
2022-07-29T13:44:58.458Z,64.13
2022-07-29T13:47:32.426Z,63.81
2022-07-29T13:50:03.236Z,64.03
2022-07-29T13:52:34.514Z,65.21
2022-07-29T13:55:04.098Z,65.31
2022-07-29T13:57:32.964Z,65.50
2022-07-29T14:00:01.511Z,65.99
2022-07-29T14:02:36.847Z,66.63
2022-07-29T14:05:08.699Z,65.93
2022-07-29T14:07:40.325Z,66.26
2022-07-29T14:10:09.536Z,66.34
2022-07-29T14:12:38.089Z,66.94
2022-07-29T14:15:07.360Z,66.94
2022-07-29T14:17:36.248Z,67.47
2022-07-29T14:20:06.229Z,67.57
2022-07-29T14:22:40.174Z,68.10
2022-07-29T14:25:15.040Z,67.93
2022-07-29T14:27:45.171Z,68.60
2022-07-29T14:30:14.596Z,68.73
2022-07-29T14:32:43.359Z,68.78
2022-07-29T14:35:12.316Z,68.71
2022-07-29T14:37:41.624Z,68.47
2022-07-29T14:40:11.887Z,68.89
2022-07-29T14:42:40.684Z,68.75
2022-07-29T14:45:11.038Z,68.77
2022-07-29T14:47:41.069Z,68.67
2022-07-29T14:50:10.111Z,68.46
2022-07-29T14:52:39.321Z,68.91
2022-07-29T14:55:16.668Z,69.20
2022-07-29T14:57:49.812Z,69.67
2022-07-29T15:00:19.354Z,70.64
2022-07-29T15:03:01.272Z,70.90
2022-07-29T15:05:31.040Z,71.58
2022-07-29T15:08:00.690Z,71.60
2022-07-29T15:10:29.995Z,71.22
2022-07-29T15:12:59.006Z,70.64
2022-07-29T15:15:28.139Z,71.07
2022-07-29T15:17:56.984Z,70.66
2022-07-29T15:20:27.411Z,70.07
2022-07-29T15:22:59.753Z,69.22
2022-07-29T15:25:28.600Z,68.99
2022-07-29T15:28:01.237Z,69.40
2022-07-29T15:30:34.469Z,69.28
2022-07-29T15:33:04.987Z,69.34
2022-07-29T15:35:40.541Z,68.97
2022-07-29T15:38:10.168Z,69.36
2022-07-29T15:40:42.955Z,69.52
2022-07-29T15:43:11.964Z,69.67
2022-07-29T15:46:03.472Z,69.86
2022-07-29T15:48:33.291Z,70.29
2022-07-29T15:51:01.892Z,70.48
2022-07-29T15:53:30.565Z,70.68
2022-07-29T15:55:59.241Z,70.96
2022-07-29T15:58:28.017Z,71.04
2022-07-29T16:00:56.839Z,71.10
2022-07-29T16:03:25.376Z,71.32
2022-07-29T16:05:54.073Z,71.97
2022-07-29T16:08:22.927Z,71.98
2022-07-29T16:10:51.720Z,72.56
2022-07-29T16:13:20.790Z,72.59
2022-07-29T16:16:02.633Z,72.98
2022-07-29T16:18:32.080Z,73.64
2022-07-29T16:21:00.824Z,73.53
2022-07-29T16:23:29.576Z,73.87
2022-07-29T16:26:00.105Z,74.20
2022-07-29T16:28:30.425Z,74.05
2022-07-29T16:30:59.465Z,73.58
2022-07-29T16:33:28.916Z,73.51
2022-07-29T16:36:18.965Z,72.91
2022-07-29T16:38:48.125Z,72.97
2022-07-29T16:41:16.729Z,72.53
2022-07-29T16:43:45.737Z,72.69
2022-07-29T16:46:18.445Z,72.77
2022-07-29T16:48:47.920Z,72.81
2022-07-29T16:51:17.518Z,73.07
2022-07-29T16:53:46.276Z,72.80
2022-07-29T16:56:18.577Z,72.90
2022-07-29T16:58:47.486Z,73.26
2022-07-29T17:01:16.879Z,73.70
2022-07-29T17:04:03.758Z,73.64
2022-07-29T17:06:33.457Z,73.62
2022-07-29T17:09:03.777Z,73.39
2022-07-29T17:11:51.762Z,73.47
2022-07-29T17:14:24.193Z,73.95
2022-07-29T17:17:00.294Z,73.83
2022-07-29T17:19:34.538Z,74.20
2022-07-29T17:22:14.060Z,73.71
2022-07-29T17:24:48.663Z,74.18
2022-07-29T17:27:17.275Z,74.27
2022-07-29T17:29:46.026Z,73.83
2022-07-29T17:32:14.974Z,74.48
2022-07-29T17:34:44.275Z,74.57
2022-07-29T17:37:13.427Z,74.65
2022-07-29T17:39:43.057Z,74.82
2022-07-29T17:42:14.007Z,75.07
2022-07-29T17:44:42.597Z,75.33
2022-07-29T17:47:15.973Z,74.90
2022-07-29T17:49:46.358Z,75.63
2022-07-29T17:52:15.239Z,75.57
2022-07-29T17:54:43.659Z,75.46
2022-07-29T17:57:12.377Z,75.66
2022-07-29T17:59:41.197Z,76.18
2022-07-29T18:02:10.609Z,76.42
2022-07-29T18:04:39.600Z,76.71
2022-07-29T18:07:08.317Z,76.70
2022-07-29T18:09:39.436Z,77.01
2022-07-29T18:12:08.736Z,76.71
2022-07-29T18:14:37.556Z,77.13
2022-07-29T18:17:06.356Z,76.82
2022-07-29T18:19:34.836Z,77.50
2022-07-29T18:22:05.434Z,77.71
2022-07-29T18:24:34.555Z,78.20
2022-07-29T18:27:03.272Z,77.91
2022-07-29T18:29:31.724Z,77.93
2022-07-29T18:32:00.650Z,77.97
2022-07-29T18:34:29.795Z,78.06
2022-07-29T18:36:58.711Z,78.27
2022-07-29T18:39:27.595Z,78.50
2022-07-29T18:41:56.306Z,78.61
2022-07-29T18:44:25.115Z,78.61
2022-07-29T18:46:54.120Z,78.68
2022-07-29T18:49:24.376Z,78.90
2022-07-29T18:51:53.148Z,78.82
2022-07-29T18:54:21.746Z,78.99
2022-07-29T18:56:50.642Z,78.98
2022-07-29T18:59:21.375Z,79.09
2022-07-29T19:01:50.794Z,79.28
2022-07-29T19:04:20.634Z,79.55
2022-07-29T19:06:50.935Z,80.15
2022-07-29T19:09:20.865Z,79.67
2022-07-29T19:11:55.585Z,79.59
2022-07-29T19:14:25.094Z,80.10
2022-07-29T19:16:54.281Z,80.10
2022-07-29T19:19:22.885Z,79.76
2022-07-29T19:21:51.889Z,80.52
2022-07-29T19:24:22.058Z,80.53
2022-07-29T19:26:50.856Z,80.67
2022-07-29T19:29:19.404Z,80.81
2022-07-29T19:31:48.376Z,80.69
2022-07-29T19:34:16.878Z,80.86
2022-07-29T19:36:45.803Z,80.90
2022-07-29T19:39:16.226Z,81.39
2022-07-29T19:41:45.028Z,81.42
2022-07-29T19:44:14.586Z,81.40
2022-07-29T19:46:44.236Z,81.45
2022-07-29T19:49:15.271Z,81.70
2022-07-29T19:51:44.131Z,81.82
2022-07-29T19:54:13.239Z,82.27
2022-07-29T19:56:42.474Z,82.16
2022-07-29T19:59:10.894Z,82.17
2022-07-29T20:01:41.392Z,82.38
2022-07-29T20:04:18.106Z,82.46
2022-07-29T20:06:47.183Z,82.63
2022-07-29T20:09:20.389Z,82.73
2022-07-29T20:11:52.280Z,83.02
2022-07-29T20:14:21.470Z,83.21
2022-07-29T20:16:51.088Z,83.05
2022-07-29T20:19:22.242Z,82.93
2022-07-29T20:21:52.233Z,83.01
2022-07-29T20:24:21.494Z,83.32
2022-07-29T20:26:51.628Z,83.28
2022-07-29T20:29:20.435Z,83.55
2022-07-29T20:31:52.270Z,83.82
2022-07-29T20:34:25.115Z,83.84
2022-07-29T20:36:54.638Z,83.89
2022-07-29T20:39:24.039Z,83.89
2022-07-29T20:41:52.906Z,84.17
2022-07-29T20:44:24.772Z,84.39
2022-07-29T20:46:53.500Z,84.31
2022-07-29T20:49:22.263Z,84.46
2022-07-29T20:51:51.334Z,84.79
2022-07-29T20:54:20.246Z,84.41
2022-07-29T20:56:49.424Z,84.54
2022-07-29T20:59:18.455Z,84.86
2022-07-29T21:01:47.116Z,85.12
2022-07-29T21:04:17.688Z,84.99
2022-07-29T21:06:46.744Z,84.79
2022-07-29T21:09:15.884Z,85.22
2022-07-29T21:11:45.281Z,85.14
2022-07-29T21:14:33.480Z,85.31
2022-07-29T21:17:02.784Z,85.15
2022-07-29T21:19:35.045Z,85.35
2022-07-29T21:22:04.175Z,85.40
2022-07-29T21:24:32.981Z,85.50
2022-07-29T21:27:21.578Z,85.57
2022-07-29T21:29:51.280Z,85.69
2022-07-29T21:32:27.600Z,85.93
2022-07-29T21:34:59.245Z,85.62
2022-07-29T21:37:28.846Z,85.69
2022-07-29T21:39:59.025Z,85.76
2022-07-29T21:42:27.855Z,85.98
2022-07-29T21:44:57.430Z,86.21
2022-07-29T21:47:27.748Z,86.27
2022-07-29T21:49:56.175Z,86.29
2022-07-29T21:52:24.781Z,86.34
2022-07-29T21:54:53.346Z,86.42
2022-07-29T21:57:21.945Z,86.49
2022-07-29T21:59:50.836Z,86.66
2022-07-29T22:02:19.750Z,86.62
2022-07-29T22:04:48.721Z,86.85
2022-07-29T22:07:17.652Z,87.10
2022-07-29T22:09:47.051Z,87.26
2022-07-29T22:12:16.625Z,87.11
2022-07-29T22:14:45.395Z,87.12
2022-07-29T22:17:16.813Z,87.26
2022-07-29T22:19:45.326Z,87.41
2022-07-29T22:22:14.290Z,87.40
2022-07-29T22:24:43.207Z,87.46
2022-07-29T22:27:12.571Z,87.82
2022-07-29T22:29:41.386Z,87.47
2022-07-29T22:32:10.148Z,87.78
2022-07-29T22:34:38.808Z,87.76
2022-07-29T22:37:07.590Z,87.73
2022-07-29T22:39:36.552Z,88.16
2022-07-29T22:42:05.553Z,87.85
2022-07-29T22:44:34.455Z,88.10
2022-07-29T22:47:04.271Z,88.24
2022-07-29T22:49:33.196Z,88.05
2022-07-29T22:52:02.104Z,88.26
2022-07-29T22:54:30.673Z,88.52
2022-07-29T22:56:59.745Z,88.54
2022-07-29T22:59:28.598Z,88.42
2022-07-29T23:01:57.445Z,88.26
2022-07-29T23:04:26.225Z,88.28
2022-07-29T23:06:55.370Z,88.68
2022-07-29T23:09:24.288Z,88.45
2022-07-29T23:11:52.936Z,88.56
2022-07-29T23:14:21.567Z,88.63
2022-07-29T23:16:50.494Z,89.15
2022-07-29T23:19:19.650Z,88.99
2022-07-29T23:21:48.793Z,88.85
2022-07-29T23:24:17.555Z,88.92
2022-07-29T23:26:46.254Z,88.85
2022-07-29T23:29:14.888Z,89.01
2022-07-29T23:31:45.921Z,88.65
2022-07-29T23:34:17.109Z,88.32
2022-07-29T23:36:45.639Z,87.14
2022-07-29T23:39:14.404Z,86.21
2022-07-29T23:41:43.820Z,84.95
2022-07-29T23:44:12.760Z,83.84
2022-07-29T23:46:41.462Z,82.76
2022-07-29T23:49:10.424Z,81.78
2022-07-29T23:51:39.283Z,81.26
2022-07-29T23:54:11.035Z,79.78
2022-07-29T23:56:39.722Z,78.83
2022-07-29T23:59:08.518Z,78.86
